Bookmark and Share
Track history (hours):
 

Meridian

Last reported at 2014-Apr-22 11:33 UTC. Time now 2014-Apr-23 15:08 UTC.
Position N 54°38' W 008°26'.

Length 12 m.

Type: Fishing. MMSI: 250107450.

NotesDate/timePositionNaut miles runAvg speedWind from/ knotsBaromVisibWave heightAir tempDewpointWater temp
2014-Apr-22 11:33N 54°38' W 008°26'0 0.0
2014-Apr-22 10:21N 54°38' W 008°26'0 0.0
2014-Apr-22 09:33N 54°38' W 008°26'  
2014-Apr-19 15:31N 54°38' W 008°27'4 4.2
2014-Apr-19 14:33N 54°34' W 008°29'8 7.9
2014-Apr-19 13:33N 54°27' W 008°36'2 2.2
2014-Apr-19 12:28N 54°27' W 008°40'2 1.8
2014-Apr-19 11:33N 54°28' W 008°42'6 6.1
2014-Apr-19 10:33N 54°32' W 008°35'4 3.5
2014-Apr-19 09:33N 54°34' W 008°30'3 2.5
2014-Apr-19 08:32N 54°36' W 008°28'2 1.9
2014-Apr-19 07:25N 54°38' W 008°27'  
2014-Apr-15 07:34N 54°38' W 008°26'1 0.1
2014-Apr-14 13:34N 54°37' W 008°27'4 1.9
2014-Apr-14 11:33N 54°35' W 008°33'1 1.2
2014-Apr-14 10:33N 54°36' W 008°35'5 1.7
2014-Apr-14 07:33N 54°37' W 008°27'1 0.0
2014-Apr-13 15:31N 54°38' W 008°27'3 3.6
2014-Apr-13 14:33N 54°36' W 008°31'0 0.1
2014-Apr-13 13:33N 54°36' W 008°31'2 2.4
2014-Apr-13 12:33N 54°36' W 008°35'0 0.3
2014-Apr-13 11:33N 54°36' W 008°35'2 2.0
2014-Apr-13 10:32N 54°37' W 008°32'2 1.6
2014-Apr-13 09:31N 54°36' W 008°30'3 2.8
2014-Apr-13 08:29N 54°38' W 008°26'0 0.4
2014-Apr-13 07:32N 54°38' W 008°27'  

Dump ship's entire track history

sailing weather and tide predictions

Meridian — EI6085 — position and weather